Time;durP1;ratioP1;P1;durP2;ratioP2;P2;SDS_P1;SDS_P2;PMS_P1;PMS_P2;Temp;Humidity;BMP_temperature;BMP_pressure;BME280_temperature;BME280_humidity;BME280_pressure;Samples;Min_cycle;Max_cycle;Signal;HPM_P1;HPM_P2
2022/12/21 00:01:25;;;;;;;8.77;2.10;;;11.40;99.90;;;;;;5034234;28;20052;-69
2022/12/21 00:03:55;;;;;;;9.93;4.45;;;11.40;99.90;;;;;;5035387;28;20044;-76
2022/12/21 00:06:23;;;;;;;10.43;3.30;;;11.40;99.90;;;;;;5034358;28;20132;-69
2022/12/21 00:08:50;;;;;;;8.52;3.60;;;11.50;99.90;;;;;;5035066;28;20385;-75
2022/12/21 00:11:16;;;;;;;10.20;2.80;;;11.40;99.90;;;;;;5035179;28;20152;-69
2022/12/21 00:13:42;;;;;;;9.77;3.22;;;11.40;99.90;;;;;;5035259;28;20396;-70
2022/12/21 00:16:20;;;;;;;8.32;3.22;;;11.40;99.90;;;;;;5035048;28;20037;-68
2022/12/21 00:18:46;;;;;;;12.90;5.60;;;11.40;99.90;;;;;;5034941;28;20481;-71
2022/12/21 00:21:19;;;;;;;12.95;5.70;;;11.40;99.90;;;;;;5033796;28;20079;-71
2022/12/21 00:23:46;;;;;;;9.60;3.50;;;11.40;99.90;;;;;;5034423;28;20475;-69
2022/12/21 00:26:14;;;;;;;5.07;2.00;;;11.40;99.90;;;;;;5033585;28;20037;-70
2022/12/21 00:28:39;;;;;;;19.58;8.52;;;11.40;99.90;;;;;;5035056;28;20128;-74
2022/12/21 00:31:14;;;;;;;9.65;4.70;;;11.40;99.90;;;;;;5034608;28;20128;-69
2022/12/21 00:33:41;;;;;;;7.10;3.35;;;11.20;99.90;;;;;;5034733;28;20041;-75
2022/12/21 00:36:09;;;;;;;4.57;2.25;;;11.30;99.90;;;;;;5034825;28;20091;-69
2022/12/21 00:38:35;;;;;;;10.48;2.75;;;11.30;99.90;;;;;;5034736;28;20124;-74
2022/12/21 00:41:04;;;;;;;8.48;3.67;;;11.20;99.90;;;;;;5034728;28;20400;-74
2022/12/21 00:43:35;;;;;;;8.90;3.60;;;11.20;99.90;;;;;;5034413;28;20033;-75
2022/12/21 00:46:01;;;;;;;7.07;3.53;;;11.30;99.90;;;;;;5034418;28;20099;-70
2022/12/21 00:48:28;;;;;;;7.35;2.92;;;11.20;99.90;;;;;;5034294;28;20511;-74
2022/12/21 00:50:54;;;;;;;6.53;3.22;;;11.30;99.90;;;;;;5033537;28;20060;-75
2022/12/21 00:53:20;;;;;;;5.10;1.80;;;11.30;99.90;;;;;;5034284;28;20037;-75
2022/12/21 00:55:57;;;;;;;2.22;1.30;;;11.30;99.90;;;;;;5034417;28;20171;-69
2022/12/21 00:58:24;;;;;;;8.77;1.83;;;11.30;99.90;;;;;;5034297;28;20073;-70
2022/12/21 01:00:53;;;;;;;5.32;2.22;;;11.30;99.90;;;;;;5034513;28;20054;-75
2022/12/21 01:03:19;;;;;;;5.82;1.67;;;11.20;99.90;;;;;;5034286;28;20041;-69
2022/12/21 01:05:46;;;;;;;6.00;2.67;;;11.20;99.90;;;;;;5032902;28;20393;-69
2022/12/21 01:08:12;;;;;;;2.55;1.70;;;11.40;99.90;;;;;;5033010;28;20591;-69
2022/12/21 01:10:38;;;;;;;12.07;4.50;;;11.50;99.90;;;;;;5034173;28;20049;-69
2022/12/21 01:13:04;;;;;;;10.63;3.92;;;11.40;99.90;;;;;;5034387;28;20782;-69
2022/12/21 01:15:30;;;;;;;6.57;2.42;;;11.40;99.90;;;;;;5034256;28;20044;-75
2022/12/21 01:17:55;;;;;;;4.60;2.25;;;11.30;99.90;;;;;;5032642;28;20037;-75
2022/12/21 01:20:21;;;;;;;5.03;1.45;;;11.30;99.90;;;;;;5032780;28;20110;-72
2022/12/21 01:22:47;;;;;;;11.02;3.83;;;11.20;99.90;;;;;;5034249;28;20045;-75
2022/12/21 01:25:13;;;;;;;5.10;1.65;;;11.20;99.90;;;;;;5034139;28;20037;-69
2022/12/21 01:27:38;;;;;;;2.33;1.42;;;11.30;99.90;;;;;;5033765;28;20033;-75
2022/12/21 01:30:05;;;;;;;5.32;2.13;;;11.30;99.90;;;;;;5033831;28;20447;-70
2022/12/21 01:32:31;;;;;;;8.95;3.03;;;11.30;99.90;;;;;;5033971;28;20057;-75
2022/12/21 01:34:57;;;;;;;9.60;3.83;;;11.30;99.90;;;;;;5033779;28;20037;-70
2022/12/21 01:37:23;;;;;;;13.25;5.63;;;11.30;99.90;;;;;;5033829;28;20048;-75
2022/12/21 01:39:49;;;;;;;12.70;5.63;;;11.20;99.90;;;;;;5033849;28;20120;-75
2022/12/21 01:42:15;;;;;;;9.40;4.43;;;11.30;99.90;;;;;;5033742;28;20116;-74
2022/12/21 01:45:17;;;;;;;16.92;6.55;;;11.30;99.90;;;;;;5029851;28;20475;-71
2022/12/21 01:47:55;;;;;;;22.00;7.78;;;11.30;99.90;;;;;;5031811;28;20033;-69
2022/12/21 01:50:27;;;;;;;31.52;9.80;;;11.20;99.90;;;;;;5032728;28;20043;-75
2022/12/21 01:52:54;;;;;;;10.57;4.13;;;11.20;99.90;;;;;;5033857;28;20049;-70
2022/12/21 01:55:21;;;;;;;15.18;5.18;;;11.20;99.90;;;;;;5033990;28;20033;-70
2022/12/21 01:57:47;;;;;;;7.07;2.67;;;11.30;99.90;;;;;;5033812;28;20115;-70
2022/12/21 02:00:13;;;;;;;3.10;1.58;;;11.30;99.90;;;;;;5032465;28;20508;-69
2022/12/21 02:02:48;;;;;;;4.30;1.58;;;11.30;99.90;;;;;;5036161;28;20091;-75
2022/12/21 02:05:30;;;;;;;4.85;1.25;;;11.20;99.90;;;;;;5037660;28;20531;-76
2022/12/21 02:07:59;;;;;;;3.85;1.02;;;11.30;99.90;;;;;;5037695;28;20045;-70
2022/12/21 02:10:25;;;;;;;3.05;1.02;;;11.30;99.90;;;;;;5037533;28;20037;-69
2022/12/21 02:12:58;;;;;;;2.95;0.95;;;11.20;99.90;;;;;;5037443;28;20476;-75
2022/12/21 02:15:34;;;;;;;1.23;0.80;;;11.20;99.90;;;;;;5037307;28;20048;-69
2022/12/21 02:18:25;;;;;;;3.55;1.70;;;11.30;99.90;;;;;;5037507;28;20451;-70
2022/12/21 02:20:54;;;;;;;3.15;1.40;;;11.30;99.90;;;;;;5037288;28;20076;-73
2022/12/21 02:23:35;;;;;;;1.92;1.17;;;11.30;99.90;;;;;;5035876;28;20033;-76
2022/12/21 02:26:17;;;;;;;5.13;1.80;;;11.30;99.90;;;;;;5037144;28;20124;-74
2022/12/21 02:29:12;;;;;;;2.80;1.23;;;11.20;99.90;;;;;;5037324;28;20041;-70
2022/12/21 02:31:50;;;;;;;1.30;0.90;;;11.30;99.90;;;;;;5036310;28;20492;-73
2022/12/21 02:34:59;;;;;;;2.45;1.02;;;11.30;99.90;;;;;;5037103;28;20558;-70
2022/12/21 02:37:38;;;;;;;4.10;2.08;;;11.30;99.90;;;;;;4956608;28;20133;-69
2022/12/21 02:40:14;;;;;;;1.27;0.90;;;11.30;99.90;;;;;;5027871;28;20037;-76
2022/12/21 02:45:57;;;;;;;1.20;0.80;;;11.30;99.90;;;;;;5036884;28;20091;-70
2022/12/21 02:48:29;;;;;;;1.70;0.70;;;11.30;99.90;;;;;;5036969;28;20116;-69
2022/12/21 02:51:00;;;;;;;2.13;0.80;;;11.30;99.90;;;;;;5035461;28;20528;-75
2022/12/21 02:53:31;;;;;;;2.40;1.05;;;11.30;99.90;;;;;;5036875;28;20480;-69
2022/12/21 02:55:58;;;;;;;4.65;2.33;;;11.40;99.90;;;;;;5036842;28;20045;-69
2022/12/21 02:58:24;;;;;;;3.40;1.63;;;11.30;99.90;;;;;;5036525;28;20026;-76
2022/12/21 03:00:53;;;;;;;1.80;0.90;;;11.30;99.90;;;;;;5035293;28;20518;-76
2022/12/21 03:06:32;;;;;;;4.25;1.15;;;11.30;99.90;;;;;;5036507;28;20048;-70
2022/12/21 03:09:39;;;;;;;1.40;0.75;;;11.30;99.90;;;;;;5035117;28;20041;-70
2022/12/21 03:12:20;;;;;;;0.90;0.57;;;11.30;99.90;;;;;;5015230;28;20456;-75
2022/12/21 03:14:58;;;;;;;0.73;0.50;;;11.20;99.90;;;;;;5015822;28;20046;-73
2022/12/21 03:17:42;;;;;;;0.40;0.40;;;11.20;99.90;;;;;;5016607;28;20129;-75
2022/12/21 03:20:28;;;;;;;0.50;0.50;;;11.10;99.90;;;;;;5016465;28;20133;-75
2022/12/21 03:22:57;;;;;;;1.00;0.90;;;11.10;99.90;;;;;;5031592;28;20120;-72
2022/12/21 03:25:38;;;;;;;0.68;0.60;;;11.20;99.90;;;;;;5036228;28;20041;-70
2022/12/21 03:28:09;;;;;;;1.63;0.98;;;11.20;99.90;;;;;;5035932;28;20049;-70
2022/12/21 03:30:45;;;;;;;3.42;1.60;;;11.10;99.90;;;;;;5035869;28;20075;-71
2022/12/21 03:33:17;;;;;;;1.80;1.00;;;11.00;99.90;;;;;;5036072;28;20044;-75
2022/12/21 03:35:49;;;;;;;0.88;0.60;;;11.00;99.90;;;;;;5035912;28;20053;-70
2022/12/21 03:38:24;;;;;;;3.78;0.73;;;11.00;99.90;;;;;;5036055;28;20048;-75
2022/12/21 03:40:55;;;;;;;1.58;0.60;;;11.00;99.90;;;;;;5035842;28;20045;-76
2022/12/21 03:43:30;;;;;;;0.50;0.40;;;11.00;99.90;;;;;;5034299;28;20041;-71
2022/12/21 03:46:19;;;;;;;0.50;0.40;;;11.00;99.90;;;;;;5034512;28;20132;-70
2022/12/21 03:48:55;;;;;;;0.80;0.50;;;11.00;99.90;;;;;;5035871;28;20048;-76
2022/12/21 03:51:41;;;;;;;1.17;0.85;;;11.10;99.90;;;;;;5035238;28;20508;-75
2022/12/21 03:54:13;;;;;;;1.83;1.10;;;11.00;99.90;;;;;;5035309;28;20378;-75
2022/12/21 03:56:40;;;;;;;5.30;1.42;;;10.90;99.90;;;;;;5035630;28;20120;-75
2022/12/21 03:59:09;;;;;;;2.17;1.35;;;10.90;99.90;;;;;;5035666;28;20483;-75
2022/12/21 04:01:46;;;;;;;1.92;1.20;;;10.90;99.90;;;;;;5035341;28;20042;-70
2022/12/21 04:04:21;;;;;;;4.18;2.70;;;10.90;99.90;;;;;;5035348;28;20045;-74
2022/12/21 04:06:49;;;;;;;4.82;2.20;;;11.00;99.90;;;;;;5035175;28;20081;-70
2022/12/21 04:09:15;;;;;;;2.40;1.02;;;11.00;99.90;;;;;;5035364;28;20496;-70
2022/12/21 04:14:26;;;;;;;0.95;0.55;;;11.00;99.90;;;;;;5035049;28;20032;-76
2022/12/21 04:16:52;;;;;;;1.27;0.70;;;11.00;99.90;;;;;;5034980;28;20033;-70
2022/12/21 04:22:02;;;;;;;1.83;0.73;;;11.00;99.90;;;;;;5035156;28;20072;-70
2022/12/21 04:29:56;;;;;;;1.40;0.50;;;11.00;99.90;;;;;;5034989;28;20036;-69
2022/12/21 04:32:22;;;;;;;3.20;0.50;;;11.10;99.90;;;;;;5034849;28;20408;-75
2022/12/21 04:34:48;;;;;;;0.45;0.35;;;11.10;99.90;;;;;;5034946;28;20041;-69
2022/12/21 04:37:32;;;;;;;1.17;0.77;;;11.10;99.90;;;;;;5034652;28;20385;-75
2022/12/21 04:39:59;;;;;;;0.63;0.57;;;11.20;99.90;;;;;;5033467;28;20041;-75
2022/12/21 04:42:25;;;;;;;1.25;0.75;;;11.10;99.90;;;;;;5033475;28;20041;-70
2022/12/21 04:44:51;;;;;;;3.13;1.17;;;11.10;99.90;;;;;;5034860;28;20068;-76
2022/12/21 04:47:17;;;;;;;7.70;2.40;;;11.10;99.90;;;;;;5034453;28;20390;-70
2022/12/21 04:49:42;;;;;;;11.27;4.72;;;11.00;99.90;;;;;;5034472;28;20397;-70
2022/12/21 04:52:08;;;;;;;5.72;2.67;;;11.00;99.90;;;;;;5034569;28;20049;-74
2022/12/21 04:54:34;;;;;;;5.55;2.13;;;11.00;99.90;;;;;;5034698;28;20076;-69
2022/12/21 04:57:00;;;;;;;2.05;1.20;;;11.00;99.90;;;;;;5034546;28;20041;-75
2022/12/21 04:59:26;;;;;;;2.13;1.30;;;11.00;99.90;;;;;;5034289;28;20063;-75
2022/12/21 05:01:51;;;;;;;1.95;1.20;;;10.90;99.90;;;;;;5034387;28;20041;-72
2022/12/21 05:04:17;;;;;;;1.25;1.08;;;10.90;99.90;;;;;;5034345;28;20396;-76
2022/12/21 05:06:43;;;;;;;4.60;1.50;;;10.90;99.90;;;;;;5034453;28;20095;-75
2022/12/21 05:09:13;;;;;;;1.73;1.35;;;10.90;99.90;;;;;;5034438;28;20038;-75
2022/12/21 05:11:39;;;;;;;2.73;0.90;;;10.90;99.90;;;;;;5034264;28;20056;-75
2022/12/21 05:14:04;;;;;;;1.10;0.82;;;10.90;99.90;;;;;;5034029;28;20268;-70
2022/12/21 05:16:30;;;;;;;1.45;0.90;;;10.90;99.90;;;;;;5034049;28;20045;-76
2022/12/21 05:18:56;;;;;;;1.52;0.82;;;11.00;99.90;;;;;;5033546;28;20535;-70
2022/12/21 05:21:22;;;;;;;1.42;0.90;;;11.00;99.90;;;;;;5034186;28;20041;-75
2022/12/21 05:23:49;;;;;;;1.38;0.82;;;11.00;99.90;;;;;;5034227;28;20061;-74
2022/12/21 05:26:15;;;;;;;1.83;0.80;;;11.00;99.90;;;;;;5033962;28;20033;-70
2022/12/21 05:28:42;;;;;;;1.27;0.90;;;10.90;99.90;;;;;;5032729;28;20117;-70
2022/12/21 05:31:08;;;;;;;2.75;0.73;;;10.90;99.90;;;;;;5033787;28;20096;-75
2022/12/21 05:33:33;;;;;;;2.10;1.00;;;11.00;99.90;;;;;;5034317;28;20041;-75
2022/12/21 05:36:04;;;;;;;2.30;0.80;;;11.00;99.90;;;;;;5034315;28;20531;-76
2022/12/21 05:38:30;;;;;;;1.90;0.90;;;11.10;99.90;;;;;;5039081;28;20118;-75
2022/12/21 05:40:55;;;;;;;2.28;0.90;;;11.00;99.90;;;;;;5038351;28;20492;-75
2022/12/21 05:43:21;;;;;;;0.90;0.65;;;11.10;99.90;;;;;;5039825;28;20057;-70
2022/12/21 05:45:50;;;;;;;3.88;0.85;;;11.10;99.90;;;;;;5040234;28;20042;-76
2022/12/21 05:48:16;;;;;;;4.40;1.20;;;11.10;99.90;;;;;;5035746;28;20033;-71
2022/12/21 05:50:42;;;;;;;1.40;0.90;;;11.10;99.90;;;;;;5036910;28;20079;-70
2022/12/21 05:53:08;;;;;;;1.52;0.93;;;11.00;99.90;;;;;;5039210;28;20508;-74
2022/12/21 05:55:35;;;;;;;1.95;0.93;;;11.00;99.90;;;;;;5037390;28;20065;-74
2022/12/21 05:58:00;;;;;;;2.58;1.13;;;11.00;99.90;;;;;;5038853;28;20404;-70
2022/12/21 06:00:27;;;;;;;3.28;1.30;;;11.00;99.90;;;;;;5040010;28;20025;-70
2022/12/21 06:02:53;;;;;;;3.72;2.05;;;10.90;99.90;;;;;;5040316;28;20048;-70
2022/12/21 06:05:19;;;;;;;70.97;29.02;;;10.90;99.90;;;;;;5040226;28;20384;-72
2022/12/21 06:07:45;;;;;;;45.55;21.67;;;10.90;99.90;;;;;;5040177;28;20467;-76
2022/12/21 06:10:11;;;;;;;26.35;14.77;;;10.90;99.90;;;;;;5040117;28;20057;-70
2022/12/21 06:12:36;;;;;;;14.93;9.48;;;10.90;99.90;;;;;;5040196;28;20496;-70
2022/12/21 06:15:04;;;;;;;9.10;6.25;;;10.90;99.90;;;;;;5040016;28;20061;-70
2022/12/21 06:17:30;;;;;;;3.70;2.45;;;10.90;99.90;;;;;;5040293;28;20033;-76
2022/12/21 06:19:56;;;;;;;3.30;1.45;;;10.90;99.90;;;;;;5040062;28;20063;-76
2022/12/21 06:22:21;;;;;;;3.42;1.95;;;10.90;99.90;;;;;;5040128;28;20408;-70
2022/12/21 06:24:47;;;;;;;4.47;1.25;;;10.90;99.90;;;;;;5040230;28;20069;-71
2022/12/21 06:27:13;;;;;;;1.65;1.38;;;10.90;99.90;;;;;;5040103;28;20496;-70
2022/12/21 06:29:38;;;;;;;2.35;1.08;;;10.90;99.90;;;;;;5040034;28;20132;-76
2022/12/21 06:32:04;;;;;;;1.98;0.73;;;10.90;99.90;;;;;;5039780;28;20518;-75
2022/12/21 06:34:30;;;;;;;1.25;0.82;;;10.80;99.90;;;;;;5039957;28;20037;-70
2022/12/21 06:36:56;;;;;;;1.73;1.23;;;10.80;99.90;;;;;;5039694;28;20034;-76
2022/12/21 06:39:21;;;;;;;2.42;1.00;;;10.80;99.90;;;;;;5039802;28;20163;-71
2022/12/21 06:41:47;;;;;;;3.30;1.08;;;10.80;99.90;;;;;;5039787;28;20565;-75
2022/12/21 06:44:13;;;;;;;1.60;0.80;;;10.80;99.90;;;;;;5039508;28;20044;-75
2022/12/21 06:46:38;;;;;;;1.85;0.80;;;10.80;99.90;;;;;;5039664;28;20758;-70
2022/12/21 06:49:04;;;;;;;1.48;0.90;;;10.80;99.90;;;;;;5036240;28;20049;-70
2022/12/21 06:51:30;;;;;;;5.63;3.45;;;10.70;99.90;;;;;;5036690;28;20052;-70
2022/12/21 06:53:55;;;;;;;3.50;2.15;;;10.70;99.90;;;;;;5036804;28;20111;-74
2022/12/21 06:56:29;;;;;;;1.80;1.00;;;10.60;99.90;;;;;;5036766;28;20079;-70
2022/12/21 06:58:55;;;;;;;2.03;0.80;;;10.60;99.90;;;;;;5036299;28;20080;-76
2022/12/21 07:01:23;;;;;;;1.60;1.02;;;10.60;99.90;;;;;;5036380;28;20041;-71
2022/12/21 07:03:49;;;;;;;1.50;0.82;;;10.70;99.90;;;;;;5036568;28;20496;-74
2022/12/21 07:06:17;;;;;;;1.83;0.85;;;10.60;99.90;;;;;;5035211;28;20033;-71
2022/12/21 07:08:43;;;;;;;3.88;1.30;;;10.50;99.90;;;;;;5036479;28;20118;-70
2022/12/21 07:11:14;;;;;;;2.53;1.38;;;10.70;99.90;;;;;;5036317;28;20106;-76
2022/12/21 07:13:42;;;;;;;3.15;1.40;;;10.70;99.90;;;;;;5036127;28;20091;-71
2022/12/21 07:16:09;;;;;;;5.45;3.30;;;10.70;99.90;;;;;;5036185;28;20053;-74
2022/12/21 07:18:35;;;;;;;4.47;3.03;;;10.80;99.90;;;;;;5036377;28;20052;-75
2022/12/21 07:21:04;;;;;;;3.38;2.00;;;10.80;99.90;;;;;;5036354;28;20037;-75
2022/12/21 07:23:31;;;;;;;4.60;2.40;;;10.90;99.90;;;;;;5036158;28;20396;-69
2022/12/21 07:25:57;;;;;;;4.70;3.10;;;10.80;99.90;;;;;;5035753;28;20041;-74
2022/12/21 07:28:24;;;;;;;2.83;1.40;;;10.80;99.90;;;;;;5036168;28;20035;-72
2022/12/21 07:30:51;;;;;;;0.90;0.73;;;10.80;99.90;;;;;;5035876;28;20045;-69
2022/12/21 07:33:18;;;;;;;2.35;0.95;;;10.80;99.90;;;;;;5035972;28;20052;-70
2022/12/21 07:35:45;;;;;;;4.18;2.70;;;10.70;99.90;;;;;;5035704;28;20050;-70
2022/12/21 07:38:11;;;;;;;4.93;1.60;;;10.70;99.90;;;;;;5035695;28;20045;-75
2022/12/21 07:40:37;;;;;;;9.15;3.75;;;10.80;99.90;;;;;;5035777;28;20037;-74
2022/12/21 07:43:08;;;;;;;21.52;10.05;;;10.80;99.90;;;;;;5035821;28;20049;-70
2022/12/21 07:45:34;;;;;;;11.73;6.20;;;10.70;99.90;;;;;;5035722;28;20037;-75
2022/12/21 07:47:59;;;;;;;9.10;3.95;;;10.80;99.90;;;;;;5035825;28;20044;-70
2022/12/21 07:50:25;;;;;;;158.13;56.40;;;10.80;99.90;;;;;;5034682;28;20041;-69
2022/12/21 07:52:52;;;;;;;136.77;54.33;;;10.70;99.90;;;;;;5033276;28;20025;-71
2022/12/21 07:55:18;;;;;;;78.50;31.05;;;10.70;99.90;;;;;;5031261;28;20033;-75
2022/12/21 07:57:43;;;;;;;46.50;19.13;;;10.70;99.90;;;;;;5013571;28;20037;-70
2022/12/21 08:00:10;;;;;;;20.58;10.02;;;10.70;99.90;;;;;;5013266;28;20160;-75
2022/12/21 08:02:35;;;;;;;14.10;6.00;;;10.60;99.90;;;;;;5014633;28;20116;-74
2022/12/21 08:05:01;;;;;;;6.95;3.47;;;10.40;99.90;;;;;;5014019;28;20093;-70
2022/12/21 08:07:27;;;;;;;3.40;2.38;;;10.20;99.90;;;;;;5032930;28;20052;-77
2022/12/21 08:09:53;;;;;;;3.03;1.70;;;10.20;99.90;;;;;;5034248;28;20052;-76
2022/12/21 08:12:18;;;;;;;3.17;2.00;;;10.20;99.90;;;;;;5030717;28;20049;-69
2022/12/21 08:14:44;;;;;;;2.10;1.30;;;10.20;99.90;;;;;;5033867;28;20117;-69
2022/12/21 08:17:10;;;;;;;2.25;1.50;;;10.30;99.90;;;;;;5035141;28;20033;-70
2022/12/21 08:19:36;;;;;;;2.80;1.50;;;10.40;99.90;;;;;;5035564;28;20066;-69
2022/12/21 08:22:01;;;;;;;2.10;1.50;;;10.50;99.90;;;;;;5033733;28;20076;-71
2022/12/21 08:24:28;;;;;;;4.68;2.55;;;10.60;99.90;;;;;;5035146;28;20050;-77
2022/12/21 08:26:54;;;;;;;3.22;2.00;;;10.70;99.90;;;;;;5034766;28;20099;-69
2022/12/21 08:29:20;;;;;;;3.58;1.85;;;10.80;99.90;;;;;;5034591;28;20455;-70
2022/12/21 08:31:46;;;;;;;2.42;1.70;;;10.90;99.90;;;;;;5033521;28;20053;-74
2022/12/21 08:34:12;;;;;;;2.53;1.60;;;11.10;99.90;;;;;;5033468;28;20044;-70
2022/12/21 08:36:38;;;;;;;3.20;1.60;;;11.30;99.90;;;;;;5034487;28;20052;-77
2022/12/21 08:39:04;;;;;;;4.63;2.35;;;11.30;99.90;;;;;;5034813;28;20037;-74
2022/12/21 08:41:30;;;;;;;24.17;13.57;;;11.20;99.90;;;;;;5034849;28;20056;-69
2022/12/21 08:43:55;;;;;;;16.85;8.07;;;11.20;99.90;;;;;;5034735;28;20033;-70
2022/12/21 08:46:21;;;;;;;6.97;5.10;;;11.30;99.90;;;;;;5029952;28;20496;-69
2022/12/21 08:48:49;;;;;;;38.65;21.13;;;11.50;99.90;;;;;;5032276;28;20504;-74
2022/12/21 08:51:15;;;;;;;20.98;10.10;;;11.80;99.90;;;;;;5032328;28;20136;-77
2022/12/21 08:53:41;;;;;;;17.83;9.10;;;11.80;99.90;;;;;;5031762;28;20043;-76
2022/12/21 08:56:07;;;;;;;25.45;12.95;;;11.80;99.90;;;;;;5032012;28;20041;-75
2022/12/21 08:58:34;;;;;;;19.35;9.70;;;12.20;99.90;;;;;;5032971;28;20043;-76
2022/12/21 09:01:00;;;;;;;24.58;12.23;;;12.00;99.90;;;;;;5030547;28;20037;-75
2022/12/21 09:03:26;;;;;;;18.73;9.20;;;12.00;99.90;;;;;;5032388;28;20586;-76
2022/12/21 09:05:57;;;;;;;20.95;10.68;;;12.10;99.90;;;;;;5032170;28;20037;-75
2022/12/21 09:08:23;;;;;;;;;;;12.10;99.90;;;;;;5032736;28;20518;-73
2022/12/21 09:10:49;;;;;;;10.80;3.30;;;12.10;99.90;;;;;;5031940;28;19913;-76
2022/12/21 09:13:19;;;;;;;4.80;2.53;;;;;;;;;;5031637;28;20124;-75
2022/12/21 09:15:44;;;;;;;5.90;3.50;;;12.30;99.90;;;;;;5031505;28;20048;-76
2022/12/21 09:18:11;;;;;;;9.23;4.20;;;12.40;99.90;;;;;;5030388;28;20049;-76
2022/12/21 09:20:37;;;;;;;5.72;2.65;;;12.60;99.90;;;;;;5031889;28;20481;-76
2022/12/21 09:23:03;;;;;;;7.80;3.08;;;12.60;99.90;;;;;;5032408;28;20204;-77
2022/12/21 09:25:29;;;;;;;7.68;3.53;;;12.60;99.90;;;;;;5032372;28;20049;-76
2022/12/21 09:27:58;;;;;;;6.55;3.70;;;12.80;99.90;;;;;;5033724;28;20037;-77
2022/12/21 09:30:24;;;;;;;6.28;3.25;;;13.00;99.90;;;;;;5031436;28;20087;-76
2022/12/21 09:32:50;;;;;;;3.75;2.28;;;13.00;99.90;;;;;;5032027;28;20041;-77
2022/12/21 09:35:16;;;;;;;3.88;1.58;;;13.10;99.90;;;;;;5031867;28;20563;-74
2022/12/21 09:37:42;;;;;;;4.25;1.45;;;12.70;99.90;;;;;;5032200;28;20099;-75
2022/12/21 09:40:19;;;;;;;1.83;1.40;;;12.90;99.90;;;;;;5031687;28;20038;-76
2022/12/21 09:43:09;;;;;;;2.83;2.05;;;13.20;99.90;;;;;;5032114;28;20128;-76
2022/12/21 09:45:44;;;;;;;2.40;1.40;;;13.20;99.90;;;;;;5030411;28;20041;-77
2022/12/21 09:48:14;;;;;;;5.38;1.45;;;13.20;99.90;;;;;;5026880;28;20040;-77
2022/12/21 09:50:48;;;;;;;2.05;1.40;;;13.30;99.90;;;;;;5010447;28;20525;-77
2022/12/21 09:53:21;;;;;;;2.85;1.77;;;13.50;99.90;;;;;;5010568;28;20409;-77
2022/12/21 09:55:51;;;;;;;2.70;1.38;;;13.60;99.90;;;;;;5013787;28;20041;-77
2022/12/21 09:58:39;;;;;;;2.63;1.83;;;13.70;99.90;;;;;;5032076;28;20123;-77
2022/12/21 10:01:26;;;;;;;2.90;1.80;;;13.60;99.90;;;;;;5030837;28;20041;-77
2022/12/21 10:04:04;;;;;;;3.28;2.05;;;13.60;99.90;;;;;;5033780;28;20045;-77
2022/12/21 10:06:48;;;;;;;4.35;2.25;;;13.50;99.90;;;;;;5031539;28;20053;-78
2022/12/21 10:09:28;;;;;;;2.58;1.45;;;13.30;99.90;;;;;;5031332;28;20063;-77
2022/12/21 10:12:15;;;;;;;4.05;1.70;;;13.40;99.90;;;;;;5030243;28;20045;-78
2022/12/21 10:14:53;;;;;;;4.18;1.50;;;13.50;99.90;;;;;;5031151;28;20065;-77
2022/12/21 10:17:24;;;;;;;3.50;1.80;;;13.60;99.90;;;;;;5031420;28;20116;-76
2022/12/21 10:20:32;;;;;;;2.65;1.80;;;13.60;99.90;;;;;;5031130;28;20038;-78
2022/12/21 10:23:05;;;;;;;1.85;1.60;;;13.60;99.90;;;;;;5032659;28;20406;-75
2022/12/21 10:25:44;;;;;;;2.78;1.63;;;13.60;99.90;;;;;;5035186;28;20056;-72
2022/12/21 10:28:12;;;;;;;3.10;1.90;;;13.70;99.90;;;;;;5034981;28;20029;-74
2022/12/21 10:30:40;;;;;;;2.55;1.73;;;13.80;99.90;;;;;;5034718;28;20076;-71
2022/12/21 10:33:11;;;;;;;4.03;2.17;;;13.90;99.90;;;;;;5033872;28;20055;-70
2022/12/21 10:35:39;;;;;;;3.20;1.92;;;14.10;99.90;;;;;;5034726;28;20053;-75
2022/12/21 10:38:17;;;;;;;4.03;1.42;;;14.20;99.90;;;;;;5033436;28;20080;-78
2022/12/21 10:40:49;;;;;;;2.63;1.88;;;14.30;99.90;;;;;;5035096;28;20399;-78
2022/12/21 10:43:15;;;;;;;2.70;1.30;;;14.10;99.90;;;;;;5036055;28;20037;-78
2022/12/21 10:45:44;;;;;;;1.77;1.17;;;14.20;99.90;;;;;;5032852;28;20046;-78
2022/12/21 10:48:11;;;;;;;4.03;1.38;;;14.10;99.90;;;;;;5034872;28;20041;-74
2022/12/21 10:50:44;;;;;;;2.88;1.27;;;14.40;99.90;;;;;;5035818;28;20053;-78
2022/12/21 10:53:27;;;;;;;2.47;1.50;;;14.20;99.90;;;;;;5035533;28;20080;-77
2022/12/21 10:55:56;;;;;;;5.63;1.38;;;14.60;99.90;;;;;;5034839;28;20530;-78
2022/12/21 10:58:28;;;;;;;2.35;1.40;;;14.50;99.90;;;;;;5034504;28;20040;-77
2022/12/21 11:01:00;;;;;;;4.20;1.60;;;14.10;99.90;;;;;;5034161;28;20120;-75
2022/12/21 11:03:31;;;;;;;2.45;1.35;;;13.90;99.90;;;;;;5034628;28;20052;-75
2022/12/21 11:05:57;;;;;;;4.00;1.25;;;14.00;99.90;;;;;;5034681;28;20400;-74
2022/12/21 11:08:28;;;;;;;3.15;1.52;;;14.10;99.90;;;;;;5034084;28;20045;-69
2022/12/21 11:10:55;;;;;;;;;;;14.10;99.90;;;;;;5034684;28;20048;-68
2022/12/21 11:13:30;;;;;;;1.55;1.10;;;14.10;99.90;;;;;;5034174;28;19908;-67
2022/12/21 11:16:05;;;;;;;2.15;1.20;;;14.20;99.90;;;;;;5033714;28;20049;-70
2022/12/21 11:18:44;;;;;;;24.05;9.63;;;14.10;99.90;;;;;;5034162;28;20072;-76
2022/12/21 11:21:32;;;;;;;19.60;8.10;;;14.40;99.90;;;;;;5032558;28;20404;-78
2022/12/21 11:24:04;;;;;;;3.75;1.90;;;14.50;99.90;;;;;;5034083;28;20124;-74
2022/12/21 11:26:35;;;;;;;10.88;3.80;;;14.40;99.90;;;;;;5033758;28;20415;-73
2022/12/21 11:29:07;;;;;;;27.25;10.45;;;14.70;99.90;;;;;;5033860;28;20038;-68
2022/12/21 11:31:35;;;;;;;36.72;15.30;;;14.90;99.90;;;;;;5034798;28;20516;-77
2022/12/21 11:34:01;;;;;;;130.68;50.58;;;14.80;99.90;;;;;;5034088;28;20049;-73
2022/12/21 11:36:27;;;;;;;10.30;5.90;;;14.80;99.90;;;;;;5033899;28;20415;-76
2022/12/21 11:38:53;;;;;;;14.38;5.72;;;15.00;99.90;;;;;;5034204;28;20052;-76
2022/12/21 11:41:26;;;;;;;6.20;2.85;;;14.90;99.90;;;;;;5034116;28;20037;-75
2022/12/21 11:43:52;;;;;;;7.78;2.72;;;14.70;99.90;;;;;;5032554;28;20077;-73
2022/12/21 11:46:46;;;;;;;1.48;0.90;;;14.60;99.90;;;;;;5033736;28;20052;-75
2022/12/21 11:49:33;;;;;;;2.22;0.80;;;14.60;99.90;;;;;;5034553;28;20546;-72
2022/12/21 11:52:21;;;;;;;2.13;1.35;;;14.50;99.90;;;;;;5031397;28;20083;-69
2022/12/21 11:55:09;;;;;;;1.52;1.17;;;14.40;99.90;;;;;;5033503;28;20038;-70
2022/12/21 11:57:54;;;;;;;2.83;1.05;;;14.30;99.90;;;;;;5005338;28;20532;-75
2022/12/21 12:00:22;;;;;;;1.25;0.65;;;14.30;99.90;;;;;;5033966;28;20037;-77
2022/12/21 12:03:05;;;;;;;3.45;2.00;;;14.30;99.90;;;;;;5033809;28;20108;-74
2022/12/21 12:05:52;;;;;;;5.32;2.60;;;14.20;99.90;;;;;;5035792;28;20075;-75
2022/12/21 12:08:21;;;;;;;8.23;3.45;;;14.00;99.90;;;;;;5034068;28;20095;-69
2022/12/21 12:11:03;;;;;;;5.35;2.72;;;14.00;99.90;;;;;;5033610;28;20034;-75
2022/12/21 12:13:47;;;;;;;2.65;1.80;;;14.00;99.90;;;;;;5032491;28;20079;-74
2022/12/21 12:16:42;;;;;;;0.85;0.60;;;14.00;99.90;;;;;;5033081;28;20048;-71
2022/12/21 12:19:13;;;;;;;1.00;0.60;;;13.90;99.90;;;;;;5025669;28;20444;-72
2022/12/21 12:21:46;;;;;;;1.00;0.52;;;13.90;99.90;;;;;;5031439;28;20059;-72
2022/12/21 12:24:31;;;;;;;2.63;1.40;;;13.80;99.90;;;;;;5033901;28;20128;-70
2022/12/21 12:27:24;;;;;;;6.93;2.53;;;13.80;99.90;;;;;;5035449;28;20068;-76
2022/12/21 12:30:02;;;;;;;20.45;12.00;;;13.80;99.90;;;;;;5032228;28;20076;-76
2022/12/21 12:32:45;;;;;;;7.57;4.55;;;13.80;99.90;;;;;;5033073;28;20061;-76
2022/12/21 12:35:45;;;;;;;5.72;3.30;;;13.70;99.90;;;;;;5031747;28;20037;-72
2022/12/21 12:38:39;;;;;;;2.50;2.03;;;13.70;99.90;;;;;;5032939;28;20488;-69
2022/12/21 12:41:23;;;;;;;2.63;2.13;;;13.70;99.90;;;;;;5032525;28;20132;-67
2022/12/21 12:44:17;;;;;;;6.65;3.55;;;13.80;99.90;;;;;;5033280;28;20404;-71
2022/12/21 12:46:55;;;;;;;2.63;1.83;;;13.70;99.90;;;;;;5008161;28;20048;-74
2022/12/21 12:49:50;;;;;;;2.00;1.67;;;13.60;99.90;;;;;;5033316;28;20037;-78
2022/12/21 12:52:51;;;;;;;8.40;5.22;;;13.60;99.90;;;;;;5025332;28;20136;-75
2022/12/21 12:55:42;;;;;;;8.40;5.45;;;13.60;99.90;;;;;;5032923;28;20114;-74
2022/12/21 12:58:10;;;;;;;;;;;13.70;99.90;;;;;;5033035;28;20071;-75
2022/12/21 13:00:56;;;;;;;7.90;4.57;;;13.70;99.90;;;;;;5012924;28;19909;-69
2022/12/21 13:03:59;;;;;;;11.05;7.25;;;13.60;99.90;;;;;;5012696;28;20045;-74
2022/12/21 13:06:51;;;;;;;11.60;7.32;;;13.60;99.90;;;;;;5006469;28;20180;-75
2022/12/21 13:09:23;;;;;;;4.13;2.88;;;13.60;99.90;;;;;;5013175;28;20033;-70
2022/12/21 13:12:07;;;;;;;2.22;1.23;;;13.50;99.90;;;;;;5031390;28;20041;-74
2022/12/21 13:14:40;;;;;;;1.42;0.82;;;13.50;99.90;;;;;;5032775;28;20044;-76
2022/12/21 13:17:35;;;;;;;2.13;1.00;;;13.50;99.90;;;;;;5032466;28;20041;-79
2022/12/21 13:20:03;;;;;;;2.67;1.50;;;13.50;99.90;;;;;;5031829;28;20519;-79
2022/12/21 13:22:34;;;;;;;1.30;1.10;;;13.50;99.90;;;;;;5031360;28;20029;-79
2022/12/21 13:25:06;;;;;;;;;;;13.40;99.90;;;;;;5032907;28;20041;-69